Time;durP1;ratioP1;P1;durP2;ratioP2;P2;SDS_P1;SDS_P2;PMS_P1;PMS_P2;Temp;Humidity;BMP_temperature;BMP_pressure;BME280_temperature;BME280_humidity;BME280_pressure;Samples;Min_cycle;Max_cycle;Signal;HPM_P1;HPM_P2
2022/01/28 00:03:14;;;;;;;126.90;45.97;;;7.40;99.90;;;;;;5116052;28;19922;-87
2022/01/28 00:06:00;;;;;;;139.15;48.88;;;;;;;;;;5095058;28;20029;-87
2022/01/28 00:08:38;;;;;;;127.07;48.00;;;7.40;99.90;;;;;;5094990;28;20554;-88
2022/01/28 00:11:04;;;;;;;144.10;49.13;;;;;;;;;;5092920;28;20056;-87
2022/01/28 00:13:52;;;;;;;129.20;46.35;;;7.50;99.90;;;;;;5093043;28;20033;-88
2022/01/28 00:17:24;;;;;;;164.68;49.25;;;6.50;99.90;;;;;;5095808;28;20075;-88
2022/01/28 00:41:00;;;;;;;153.85;51.08;;;7.30;99.90;;;;;;5076823;28;20032;-90
2022/01/28 00:43:46;;;;;;;154.02;50.97;;;;;;;;;;5016373;28;20031;-88
2022/01/28 00:46:53;;;;;;;163.80;52.75;;;7.50;99.90;;;;;;5017946;28;20022;-90
2022/01/28 00:49:22;;;;;;;141.40;49.40;;;7.80;99.90;;;;;;5024468;28;20018;-87
2022/01/28 00:52:01;;;;;;;168.75;48.72;;;6.50;99.90;;;;;;5057460;28;20080;-89
2022/01/28 00:54:54;;;;;;;175.68;54.15;;;6.30;99.90;;;;;;5057782;28;20037;-89
2022/01/28 00:57:26;;;;;;;157.55;53.08;;;7.50;99.90;;;;;;5057182;28;20040;-90
2022/01/28 01:03:26;;;;;;;157.90;51.97;;;7.50;99.90;;;;;;5037467;28;20048;-90
2022/01/28 01:06:51;;;;;;;157.88;53.38;;;7.00;99.90;;;;;;5037067;28;20070;-87
2022/01/28 01:09:19;;;;;;;169.45;55.42;;;7.50;99.90;;;;;;5030564;28;20030;-94
2022/01/28 01:11:45;;;;;;;;;;;7.60;99.90;;;;;;5037824;28;20026;-88
2022/01/28 01:14:48;;;;;;;156.90;51.55;;;8.80;99.90;;;;;;5037409;28;19916;-90
2022/01/28 01:17:36;;;;;;;137.05;48.60;;;7.60;99.90;;;;;;5028295;28;20136;-91
2022/01/28 01:29:22;;;;;;;149.45;48.95;;;9.90;99.90;;;;;;5077722;28;20024;-90
2022/01/28 01:32:28;;;;;;;165.70;52.38;;;9.70;99.90;;;;;;5018413;28;20026;-89
2022/01/28 01:35:18;;;;;;;176.70;51.93;;;7.70;99.90;;;;;;5015548;28;20042;-95
2022/01/28 01:37:47;;;;;;;167.13;50.33;;;7.60;99.90;;;;;;5013817;28;20026;-94
2022/01/28 01:40:24;;;;;;;151.07;48.80;;;7.70;99.90;;;;;;5019571;28;20040;-92
2022/01/28 01:43:05;;;;;;;150.07;51.63;;;;;;;;;;5053174;28;20052;-89
2022/01/28 01:52:06;;;;;;;177.77;54.97;;;5.50;99.90;;;;;;5031287;28;20136;-88
2022/01/28 01:54:01;;;;;;;208.45;55.03;;;;;;;;;;5026445;28;20017;-87
2022/01/28 01:56:30;;;;;;;174.18;52.65;;;6.50;99.90;;;;;;5030751;28;20048;-87
2022/01/28 01:58:57;;;;;;;188.63;53.10;;;7.70;99.90;;;;;;5017954;28;20405;-88
2022/01/28 02:01:23;;;;;;;199.82;49.97;;;;;;;;;;5052721;28;20052;-88
2022/01/28 02:04:22;;;;;;;185.10;53.85;;;9.30;99.90;;;;;;5089395;28;20012;-87
2022/01/28 02:08:00;;;;;;;168.45;49.53;;;7.70;99.90;;;;;;5091040;28;20025;-89
2022/01/28 02:10:50;;;;;;;250.75;56.65;;;7.70;99.90;;;;;;5032497;28;20026;-88
2022/01/28 02:13:17;;;;;;;226.18;55.95;;;9.90;99.90;;;;;;5033146;28;20021;-88
2022/01/28 02:16:23;;;;;;;204.20;54.53;;;7.70;99.90;;;;;;5058305;28;20086;-89
2022/01/28 02:18:56;;;;;;;215.52;54.88;;;;;;;;;;5070422;28;20013;-88
2022/01/28 02:22:13;;;;;;;277.80;55.25;;;7.70;99.90;;;;;;5073908;28;20041;-88
2022/01/28 02:25:30;;;;;;;173.98;51.95;;;7.70;99.90;;;;;;5073084;28;20113;-88
2022/01/28 02:28:57;;;;;;;185.48;52.40;;;10.40;99.90;;;;;;5072738;28;20544;-89
2022/01/28 02:31:46;;;;;;;234.68;54.03;;;10.10;99.90;;;;;;5074519;28;20033;-88
2022/01/28 02:34:16;;;;;;;232.77;53.58;;;7.70;99.90;;;;;;5071227;28;20040;-90
2022/01/28 02:36:50;;;;;;;253.52;57.55;;;7.60;99.90;;;;;;5056653;28;20333;-90
2022/01/28 02:39:35;;;;;;;272.25;56.83;;;9.90;99.90;;;;;;5038498;28;20033;-90
2022/01/28 02:42:20;;;;;;;183.55;48.25;;;10.10;99.90;;;;;;5082697;28;20044;-90
2022/01/28 02:45:08;;;;;;;236.63;54.17;;;7.60;99.90;;;;;;5091174;28;20064;-92
2022/01/28 02:47:38;;;;;;;291.10;57.33;;;;;;;;;;5070355;28;20055;-89
2022/01/28 02:50:11;;;;;;;280.92;55.15;;;;;;;;;;5071976;28;20037;-89
2022/01/28 02:53:04;;;;;;;257.48;54.22;;;5.40;99.90;;;;;;5073615;28;20544;-88
2022/01/28 02:55:58;;;;;;;275.35;56.50;;;7.70;99.90;;;;;;5075806;28;20031;-88
2022/01/28 02:58:26;;;;;;;284.83;57.05;;;;;;;;;;5074922;28;20063;-87
2022/01/28 03:01:32;;;;;;;233.77;55.80;;;7.70;99.90;;;;;;5069968;28;20045;-87
2022/01/28 03:07:32;;;;;;;370.67;58.30;;;7.60;99.90;;;;;;5027947;28;20397;-88
2022/01/28 03:10:26;;;;;;;296.83;57.83;;;;;;;;;;5033934;28;20052;-94
2022/01/28 03:15:36;;;;;;;278.13;57.85;;;9.60;99.90;;;;;;5054015;28;20025;-89
2022/01/28 03:20:42;;;;;;;279.65;53.95;;;7.60;99.90;;;;;;5084787;28;20255;-94
2022/01/28 03:23:08;;;;;;;248.18;54.13;;;;;;;;;;5095227;28;20032;-88
2022/01/28 03:25:36;;;;;;;304.60;57.95;;;;;;;;;;5073526;28;20033;-94
2022/01/28 03:28:02;;;;;;;228.93;52.50;;;8.30;99.90;;;;;;5073937;28;20531;-92
2022/01/28 03:30:28;;;;;;;315.48;51.30;;;;;;;;;;5075595;28;20024;-93
2022/01/28 03:32:55;;;;;;;397.05;59.50;;;9.10;99.90;;;;;;5080179;28;20037;-90
2022/01/28 03:35:21;;;;;;;310.20;57.65;;;;;;;;;;5080239;28;20043;-93
2022/01/28 03:37:47;;;;;;;344.52;62.00;;;;;;;;;;5106743;27;20100;-93
2022/01/28 03:40:18;;;;;;;300.83;58.42;;;;;;;;;;5126873;28;20083;-89
2022/01/28 03:42:43;;;;;;;314.00;56.20;;;9.10;99.90;;;;;;5119308;28;20028;-87
2022/01/28 03:45:09;;;;;;;288.42;56.97;;;;;;;;;;5108227;28;20100;-93
2022/01/28 03:47:35;;;;;;;293.58;56.72;;;;;;;;;;5095120;28;20027;-86
2022/01/28 03:50:01;;;;;;;322.75;56.22;;;;;;;;;;5109324;28;20028;-92
2022/01/28 03:52:27;;;;;;;402.02;60.03;;;;;;;;;;5112299;28;20046;-90
2022/01/28 03:54:53;;;;;;;313.80;55.58;;;;;;;;;;5117662;28;20031;-91
2022/01/28 03:57:19;;;;;;;425.83;58.95;;;;;;;;;;5118402;28;20029;-96
2022/01/28 03:59:45;;;;;;;570.58;64.45;;;;;;;;;;5113893;28;20475;-93
2022/01/28 04:02:12;;;;;;;543.55;61.97;;;;;;;;;;5112926;28;20068;-92
2022/01/28 04:12:51;;;;;;;454.80;62.65;;;;;;;;;;5120270;28;20053;-94
2022/01/28 04:15:34;;;;;;;322.30;61.13;;;;;;;;;;5101695;28;20115;-94
2022/01/28 04:18:03;;;;;;;469.00;63.72;;;7.40;99.90;;;;;;5096367;28;20031;-92
2022/01/28 04:20:30;;;;;;;268.15;52.28;;;;;;;;;;5112142;28;20040;-91
2022/01/28 04:22:57;;;;;;;256.27;55.07;;;5.40;99.90;;;;;;5100002;28;20028;-92
2022/01/28 04:25:27;;;;;;;266.20;55.35;;;7.50;99.90;;;;;;5095678;28;20048;-90
2022/01/28 04:27:53;;;;;;;263.77;59.30;;;;;;;;;;5123294;28;20077;-94
2022/01/28 04:30:19;;;;;;;267.95;56.60;;;;;;;;;;5112427;28;20053;-92
2022/01/28 04:32:48;;;;;;;282.33;61.90;;;;;;;;;;5123989;28;20020;-93
2022/01/28 04:35:13;;;;;;;;;;;7.50;99.90;;;;;;5131594;28;20046;-91
2022/01/28 04:40:18;;;;;;;217.85;55.83;;;;;;;;;;5113480;28;20036;-90
2022/01/28 04:43:05;;;;;;;234.15;57.00;;;;;;;;;;5111812;28;20042;-93
2022/01/28 04:45:41;;;;;;;177.82;53.67;;;9.50;99.90;;;;;;5105138;28;20032;-92
2022/01/28 04:50:47;;;;;;;141.50;50.10;;;;;;;;;;5092978;28;20067;-93
2022/01/28 04:53:35;;;;;;;203.75;51.97;;;7.70;99.90;;;;;;5097797;28;20027;-94
2022/01/28 04:56:25;;;;;;;235.70;52.45;;;;;;;;;;5109237;28;20024;-90
2022/01/28 04:58:58;;;;;;;173.50;51.25;;;;;;;;;;5118497;28;20019;-91
2022/01/28 05:04:13;;;;;;;282.70;59.85;;;;;;;;;;5139355;28;20091;-88
2022/01/28 05:07:27;;;;;;;215.32;56.97;;;;;;;;;;5133606;28;20069;-88
2022/01/28 05:26:40;;;;;;;181.55;54.92;;;;;;;;;;5054668;28;20051;-88
2022/01/28 05:29:06;;;;;;;169.55;51.92;;;;;;;;;;5059046;28;20017;-89
2022/01/28 05:31:54;;;;;;;182.38;51.75;;;7.70;99.90;;;;;;5041912;28;20067;-89
2022/01/28 05:34:51;;;;;;;;;;;7.80;99.90;;;;;;5076273;28;20025;-88
2022/01/28 05:37:45;;;;;;;152.43;46.72;;;9.60;99.90;;;;;;5050936;28;19904;-88
2022/01/28 05:40:31;;;;;;;158.55;45.88;;;;;;;;;;5053923;28;20023;-89
2022/01/28 05:42:57;;;;;;;273.13;54.80;;;;;;;;;;5055278;28;20060;-88
2022/01/28 05:45:35;;;;;;;229.73;55.00;;;7.60;99.90;;;;;;5060412;28;20040;-89
2022/01/28 05:48:42;;;;;;;232.75;52.30;;;7.50;99.90;;;;;;5078666;28;20059;-89
2022/01/28 05:51:47;;;;;;;153.77;52.22;;;7.40;99.90;;;;;;5075483;28;20049;-88
2022/01/28 05:54:35;;;;;;;151.20;51.20;;;7.40;99.90;;;;;;5052516;28;20045;-88
2022/01/28 05:57:25;;;;;;;212.97;49.80;;;7.80;99.90;;;;;;5037408;28;20018;-88
2022/01/28 05:59:54;;;;;;;254.90;59.92;;;7.30;99.90;;;;;;4995520;28;20052;-89
2022/01/28 06:02:55;;;;;;;207.63;52.08;;;7.30;99.90;;;;;;4996732;28;20018;-88
2022/01/28 06:05:21;;;;;;;171.30;49.92;;;;;;;;;;5026624;28;20037;-87
2022/01/28 06:08:27;;;;;;;309.00;53.90;;;7.20;99.90;;;;;;5034418;28;20034;-88
2022/01/28 06:11:26;;;;;;;158.75;48.10;;;7.40;99.90;;;;;;5034564;28;20045;-88
2022/01/28 06:14:09;;;;;;;262.77;53.15;;;7.20;99.90;;;;;;5034901;28;20050;-89
2022/01/28 06:16:35;;;;;;;344.67;52.47;;;;;;;;;;5034850;28;20033;-89
2022/01/28 06:19:03;;;;;;;254.27;50.33;;;7.20;99.90;;;;;;5034054;28;20034;-89
2022/01/28 06:21:30;;;;;;;439.10;56.47;;;7.20;99.90;;;;;;5013835;28;20102;-87
2022/01/28 06:24:12;;;;;;;567.95;63.33;;;7.10;99.90;;;;;;5031105;28;20034;-88
2022/01/28 06:26:56;;;;;;;356.83;53.58;;;7.20;99.90;;;;;;5053443;28;20016;-88
2022/01/28 06:29:22;;;;;;;421.83;52.10;;;;;;;;;;5069516;28;20021;-88
2022/01/28 06:32:22;;;;;;;1049.07;88.88;;;7.10;99.90;;;;;;5110097;28;20036;-87
2022/01/28 06:34:48;;;;;;;1080.05;77.75;;;;;;;;;;5079178;28;20012;-88
2022/01/28 06:37:36;;;;;;;418.05;55.47;;;7.00;99.90;;;;;;5108222;28;20024;-90
2022/01/28 06:40:20;;;;;;;393.05;52.65;;;7.30;99.90;;;;;;5094767;28;20110;-93
2022/01/28 06:42:54;;;;;;;124.65;42.83;;;7.30;99.90;;;;;;5100462;28;20040;-94
2022/01/28 07:05:59;;;;;;;79.57;31.65;;;6.10;99.90;;;;;;4910153;29;20091;-90
2022/01/28 07:09:36;;;;;;;;;;;;;;;;;;;;;
2022/01/28 07:12:34;;;;;;;49.22;28.88;;;7.20;99.90;;;;;;4875081;29;20089;-91
2022/01/28 07:15:28;;;;;;;130.40;30.20;;;7.20;99.90;;;;;;4869164;29;20044;-94
2022/01/28 07:18:31;;;;;;;;;;;;;;;;;;;;;
2022/01/28 07:31:37;;;;;;;;;;;;;;;;;;;;;
2022/01/28 07:34:05;;;;;;;188.82;23.02;;;;;;;;;;4969734;28;20501;-92
2022/01/28 07:36:39;;;;;;;62.88;19.33;;;7.20;99.90;;;;;;5017338;28;20405;-92
2022/01/28 07:42:59;;;;;;;239.38;23.08;;;7.20;99.90;;;;;;4957258;28;20169;-92
2022/01/28 08:06:28;;;;;;;;;;;;;;;;;;;;;
2022/01/28 08:13:17;;;;;;;;;;;;;;;;;;;;;
2022/01/28 08:16:42;;;;;;;;;;;;;;;;;;;;;
2022/01/28 08:22:48;;;;;;;;;;;;;;;;;;;;;
2022/01/28 08:26:13;;;;;;;;;;;;;;;;;;;;;
2022/01/28 08:29:20;;;;;;;92.93;27.92;;;7.70;99.90;;;;;;4875886;29;20410;-93
2022/01/28 08:31:53;;;;;;;;;;;;;;;;;;;;;
2022/01/28 09:32:04;;;;;;;57.46;24.92;;;8.30;99.90;;;;;;5683085;22;15060817;-94
2022/01/28 09:34:10;;;;;;;58.53;28.27;;;8.40;99.90;;;;;;6166906;23;20021;-91
2022/01/28 11:11:47;;;;;;;32.03;20.03;;;9.20;99.90;;;;;;5643681;22;15749569;-93
2022/01/28 11:14:13;;;;;;;35.35;20.70;;;9.40;99.90;;;;;;6296975;22;20344;-90
2022/01/28 11:16:40;;;;;;;34.95;21.35;;;9.30;99.90;;;;;;6336116;22;20025;-90
2022/01/28 11:19:09;;;;;;;38.65;22.05;;;9.30;99.90;;;;;;6333656;22;20010;-90
2022/01/28 11:21:52;;;;;;;35.92;22.42;;;9.30;99.90;;;;;;6305700;22;20003;-91
2022/01/28 11:24:36;;;;;;;47.67;21.67;;;9.30;99.90;;;;;;6333182;22;20007;-91
2022/01/28 11:27:18;;;;;;;33.40;20.90;;;9.30;99.90;;;;;;6305737;22;20006;-89
2022/01/28 11:29:43;;;;;;;36.20;21.75;;;9.40;99.90;;;;;;6304948;22;20030;-90
2022/01/28 11:32:15;;;;;;;34.20;20.20;;;9.40;99.90;;;;;;6333364;22;20011;-91
2022/01/28 11:35:03;;;;;;;33.13;19.70;;;9.40;99.90;;;;;;6305894;22;20008;-90
2022/01/28 11:37:28;;;;;;;32.13;20.00;;;9.50;99.90;;;;;;6306756;22;20011;-90
2022/01/28 11:40:06;;;;;;;29.63;17.75;;;9.50;99.90;;;;;;6306621;22;20105;-89
2022/01/28 11:42:32;;;;;;;26.00;17.73;;;9.60;99.90;;;;;;6307384;22;20007;-91
2022/01/28 11:45:00;;;;;;;29.95;18.92;;;9.60;99.90;;;;;;6306651;22;20014;-88
2022/01/28 11:47:33;;;;;;;34.95;19.95;;;9.70;99.90;;;;;;6334213;22;20037;-90
2022/01/28 11:50:06;;;;;;;30.42;19.48;;;9.50;99.90;;;;;;6306127;22;20007;-91
2022/01/28 11:52:36;;;;;;;32.50;20.05;;;9.60;99.90;;;;;;6332653;22;20015;-90
2022/01/28 11:55:14;;;;;;;28.35;19.17;;;9.60;99.90;;;;;;6333512;22;19999;-90
2022/01/28 11:58:04;;;;;;;28.43;19.17;;;9.70;99.90;;;;;;6332679;22;20006;-91
2022/01/28 12:00:55;;;;;;;32.65;18.95;;;9.60;99.90;;;;;;6306407;22;20306;-93
2022/01/28 12:03:26;;;;;;;29.45;19.17;;;9.70;99.90;;;;;;6289507;22;19998;-89
2022/01/28 12:05:52;;;;;;;29.25;18.80;;;9.80;99.90;;;;;;6333365;22;20081;-91
2022/01/28 12:08:19;;;;;;;26.63;17.50;;;9.80;99.90;;;;;;6306582;22;20038;-89
2022/01/28 12:10:49;;;;;;;27.27;17.88;;;;;;;;;;6307058;22;20498;-90
2022/01/28 12:13:17;;;;;;;28.00;17.55;;;10.00;99.90;;;;;;6306369;22;20011;-90
2022/01/28 12:15:59;;;;;;;29.73;17.52;;;10.30;99.90;;;;;;6334353;22;19995;-88
2022/01/28 12:18:45;;;;;;;26.73;17.13;;;10.00;99.90;;;;;;6334257;22;19998;-90
2022/01/28 12:21:15;;;;;;;28.50;18.45;;;10.10;99.90;;;;;;6333344;22;19999;-90
2022/01/28 12:23:41;;;;;;;26.52;17.90;;;10.20;99.90;;;;;;6307717;22;20028;-89
2022/01/28 12:26:13;;;;;;;29.92;18.70;;;10.10;99.90;;;;;;6335551;22;20073;-89
2022/01/28 12:28:45;;;;;;;28.33;18.13;;;10.00;99.90;;;;;;6307867;22;20003;-89
2022/01/28 12:31:12;;;;;;;26.77;17.80;;;10.20;99.90;;;;;;6307158;22;19998;-89
2022/01/28 12:33:47;;;;;;;27.17;19.05;;;10.30;99.90;;;;;;6307772;22;20021;-90
2022/01/28 12:36:15;;;;;;;33.60;18.95;;;10.20;99.90;;;;;;6306789;22;20006;-89
2022/01/28 12:38:44;;;;;;;;;;;10.20;99.90;;;;;;6335621;22;20029;-87
2022/01/28 12:41:16;;;;;;;29.98;19.00;;;10.20;99.90;;;;;;6335205;22;20285;-87
2022/01/28 12:43:42;;;;;;;32.35;19.75;;;10.10;99.90;;;;;;6306488;22;20398;-88
2022/01/28 12:46:11;;;;;;;29.58;19.55;;;10.20;99.90;;;;;;6335375;22;20122;-86
2022/01/28 12:48:46;;;;;;;31.17;20.70;;;10.10;99.90;;;;;;6308009;22;20024;-88
2022/01/28 12:51:13;;;;;;;32.10;20.45;;;10.30;99.90;;;;;;6307268;22;20002;-88
2022/01/28 12:53:43;;;;;;;29.88;18.90;;;10.30;99.90;;;;;;6307748;22;20409;-90
2022/01/28 12:56:11;;;;;;;31.73;19.60;;;10.30;99.90;;;;;;6335946;22;19999;-91
2022/01/28 12:58:48;;;;;;;28.97;20.03;;;10.30;99.90;;;;;;6307191;22;20078;-90
2022/01/28 13:01:20;;;;;;;29.20;19.98;;;10.30;99.90;;;;;;6308089;22;20006;-94
2022/01/28 13:04:15;;;;;;;32.55;20.00;;;10.40;99.90;;;;;;6316207;22;20003;-93
2022/01/28 13:09:23;;;;;;;29.17;19.15;;;10.40;99.90;;;;;;6348139;22;20003;-90
2022/01/28 13:12:02;;;;;;;33.63;20.73;;;10.40;99.90;;;;;;6322233;22;20006;-93
2022/01/28 13:15:05;;;;;;;30.60;19.85;;;10.50;99.90;;;;;;6318821;22;20089;-95
2022/01/28 13:32:26;;;;;;;;;;;;;;;;;;;;;
2022/01/28 13:35:11;;;;;;;27.88;17.33;;;10.30;99.90;;;;;;5942551;24;20009;-92
2022/01/28 13:37:47;;;;;;;25.83;17.38;;;10.30;99.90;;;;;;5963613;23;20004;-91
2022/01/28 13:40:32;;;;;;;28.08;17.85;;;10.30;99.90;;;;;;6052603;23;20055;-91
2022/01/28 13:43:32;;;;;;;;;;;;;;;;;;;;;
2022/01/28 13:49:29;;;;;;;;;;;;;;;;;;;;;
2022/01/28 14:02:27;;;;;;;;;;;;;;;;;;;;;
2022/01/28 14:25:50;;;;;;;37.40;21.02;;;10.20;99.90;;;;;;5067910;28;20910;-91
2022/01/28 14:30:44;;;;;;;32.50;21.15;;;9.90;99.90;;;;;;5071047;28;20033;-94
2022/01/28 14:33:11;;;;;;;33.72;21.80;;;9.80;99.90;;;;;;5097265;28;20031;-90
2022/01/28 14:35:43;;;;;;;35.80;22.23;;;9.90;99.90;;;;;;5100616;28;20235;-91
2022/01/28 14:38:11;;;;;;;36.08;22.33;;;;;;;;;;5067451;28;20028;-89
2022/01/28 14:40:37;;;;;;;35.15;21.67;;;;;;;;;;5068788;28;20400;-90
2022/01/28 14:43:03;;;;;;;34.40;21.65;;;9.70;99.90;;;;;;5066333;28;20025;-89
2022/01/28 14:45:29;;;;;;;36.97;21.83;;;9.90;99.90;;;;;;5107974;28;20107;-95
2022/01/28 14:48:34;;;;;;;32.67;20.27;;;9.90;99.90;;;;;;5097155;28;20025;-92
2022/01/28 14:51:10;;;;;;;29.45;18.92;;;8.70;99.90;;;;;;5071790;28;20027;-88
2022/01/28 14:54:01;;;;;;;27.35;17.30;;;9.90;99.90;;;;;;5072216;28;20040;-88
2022/01/28 15:01:12;;;;;;;;;;;;;;;;;;;;;
2022/01/28 15:03:39;;;;;;;36.40;19.73;;;9.90;99.90;;;;;;5061099;28;20406;-93
2022/01/28 15:06:15;;;;;;;;;;;;;;;;;;;;;
2022/01/28 15:08:51;;;;;;;34.33;20.75;;;9.90;99.90;;;;;;5065734;28;20045;-88
2022/01/28 15:11:31;;;;;;;35.67;21.23;;;;;;;;;;5066323;28;20029;-89
2022/01/28 15:20:34;;;;;;;;;;;;;;;;;;;;;
2022/01/28 15:23:14;;;;;;;41.78;23.85;;;9.70;99.90;;;;;;5011618;28;19905;-90
2022/01/28 15:25:43;;;;;;;89.15;40.25;;;;;;;;;;4981398;28;20519;-87
2022/01/28 15:37:41;;;;;;;36.67;22.42;;;9.70;99.90;;;;;;5052325;28;20025;-91
2022/01/28 15:40:11;;;;;;;40.30;24.25;;;9.60;99.90;;;;;;5018320;28;20040;-94
2022/01/28 15:42:37;;;;;;;39.65;22.42;;;9.60;99.90;;;;;;5055494;28;20044;-94
2022/01/28 15:45:04;;;;;;;39.92;23.60;;;9.60;99.90;;;;;;5090045;28;20025;-88
2022/01/28 15:47:54;;;;;;;41.33;24.40;;;9.60;99.90;;;;;;5056573;28;20029;-94
2022/01/28 15:51:15;;;;;;;;;;;;;;;;;;;;;
2022/01/28 16:01:54;;;;;;;;;;;;;;;;;;;;;
2022/01/28 16:07:25;;;;;;;42.67;25.05;;;11.50;99.90;;;;;;4815247;29;20088;-93
2022/01/28 16:10:04;;;;;;;51.50;31.77;;;9.60;99.90;;;;;;4874135;29;20060;-93
2022/01/28 16:19:51;;;;;;;;;;;;;;;;;;;;;
2022/01/28 16:25:19;;;;;;;47.08;27.95;;;9.50;99.90;;;;;;4885441;29;20052;-91
2022/01/28 16:27:51;;;;;;;48.65;28.42;;;;;;;;;;4914039;29;20513;-91
2022/01/28 16:33:36;;;;;;;;;;;;;;;;;;;;;
2022/01/28 16:36:41;;;;;;;;;;;;;;;;;;;;;
2022/01/28 16:39:56;;;;;;;33.38;22.05;;;9.40;99.90;;;;;;4913745;29;20035;-95
2022/01/28 16:46:20;;;;;;;55.35;32.58;;;9.40;99.90;;;;;;4928936;29;20091;-94
2022/01/28 16:49:45;;;;;;;;;;;;;;;;;;;;;
2022/01/28 17:14:48;;;;;;;54.15;28.60;;;9.20;99.90;;;;;;4733649;30;20275;-89
2022/01/28 17:18:04;;;;;;;;;;;;;;;;;;;;;
2022/01/28 17:21:03;;;;;;;;;;;;;;;;;;;;;
2022/01/28 17:33:56;;;;;;;48.13;29.13;;;;;;;;;;4826215;29;20044;-93
2022/01/28 17:36:30;;;;;;;48.78;28.35;;;9.10;99.90;;;;;;4897744;29;20041;-91
2022/01/28 17:40:05;;;;;;;54.17;32.55;;;9.20;99.90;;;;;;4995937;28;20030;-92
2022/01/28 19:10:20;;;;;;;84.50;49.33;;;8.90;99.90;;;;;;6313070;22;20094;-88
2022/01/28 19:12:49;;;;;;;80.03;49.50;;;;;;;;;;6286158;22;20014;-89
2022/01/28 19:15:16;;;;;;;77.50;47.25;;;;;;;;;;6284962;22;20018;-88
2022/01/28 19:17:42;;;;;;;75.53;47.83;;;;;;;;;;6285209;22;19995;-89
2022/01/28 19:20:08;;;;;;;84.82;50.85;;;9.00;99.90;;;;;;6284767;22;20003;-89
2022/01/28 19:22:34;;;;;;;81.20;50.83;;;;;;;;;;6285378;22;20056;-90
2022/01/28 19:25:00;;;;;;;83.57;50.17;;;;;;;;;;6312416;22;20048;-89
2022/01/28 19:27:26;;;;;;;74.85;48.67;;;;;;;;;;6286555;22;20145;-90
2022/01/28 19:29:54;;;;;;;87.45;54.38;;;;;;;;;;6286585;22;20003;-88
2022/01/28 19:32:22;;;;;;;81.95;51.97;;;;;;;;;;6285018;22;20068;-91
2022/01/28 19:34:49;;;;;;;81.07;50.85;;;8.40;99.90;;;;;;6284517;22;20045;-89
2022/01/28 19:37:16;;;;;;;77.33;48.77;;;11.10;99.90;;;;;;6284815;22;20011;-88
2022/01/28 19:39:42;;;;;;;72.00;47.50;;;;;;;;;;6312063;22;19999;-89
2022/01/28 19:42:10;;;;;;;79.57;48.72;;;;;;;;;;6284575;22;20034;-90
2022/01/28 19:44:36;;;;;;;72.32;47.55;;;;;;;;;;6284034;22;20007;-89
2022/01/28 19:47:03;;;;;;;74.00;46.20;;;9.00;99.90;;;;;;6311709;22;20045;-89
2022/01/28 19:49:30;;;;;;;75.55;47.85;;;;;;;;;;6285318;22;20065;-90
2022/01/28 19:51:58;;;;;;;72.40;46.13;;;9.10;99.90;;;;;;6286514;22;20006;-90
2022/01/28 19:54:24;;;;;;;62.58;40.53;;;;;;;;;;6285545;22;20025;-89
2022/01/28 19:56:53;;;;;;;57.33;36.78;;;;;;;;;;6311711;22;20007;-87
2022/01/28 19:59:19;;;;;;;56.45;35.58;;;;;;;;;;6284464;22;20018;-89
2022/01/28 20:01:45;;;;;;;51.17;34.00;;;;;;;;;;6284192;22;20034;-90
2022/01/28 20:04:39;;;;;;;56.05;35.63;;;7.30;99.90;;;;;;6284196;22;20006;-88
2022/01/28 20:07:04;;;;;;;51.22;33.20;;;;;;;;;;6306881;22;20018;-90
2022/01/28 20:09:30;;;;;;;58.53;36.00;;;;;;;;;;6277324;22;20011;-89
2022/01/28 20:11:56;;;;;;;53.72;35.35;;;;;;;;;;6278509;22;19999;-89
2022/01/28 20:14:22;;;;;;;52.80;34.50;;;;;;;;;;6277132;22;20006;-89
2022/01/28 20:16:51;;;;;;;52.30;31.73;;;;;;;;;;6277164;22;20245;-90
2022/01/28 20:19:17;;;;;;;44.83;29.73;;;;;;;;;;6277441;22;20026;-89
2022/01/28 20:21:43;;;;;;;42.17;28.52;;;;;;;;;;6277557;22;20006;-90
2022/01/28 20:24:09;;;;;;;42.10;28.05;;;;;;;;;;6277513;22;20011;-87
2022/01/28 20:26:35;;;;;;;44.53;30.45;;;;;;;;;;6276717;22;20014;-86
2022/01/28 20:29:01;;;;;;;45.22;30.23;;;;;;;;;;6304004;22;20388;-87
2022/01/28 20:31:30;;;;;;;41.40;28.98;;;9.00;99.90;;;;;;6277929;22;20090;-90
2022/01/28 20:33:55;;;;;;;44.90;28.98;;;9.00;99.90;;;;;;6278487;22;20034;-87
2022/01/28 20:36:21;;;;;;;41.63;28.05;;;;;;;;;;6304336;22;20007;-90
2022/01/28 20:38:50;;;;;;;50.33;30.75;;;9.10;99.90;;;;;;6276943;22;20379;-93
2022/01/28 20:41:17;;;;;;;61.10;34.97;;;;;;;;;;6277621;22;20010;-88
2022/01/28 20:43:43;;;;;;;61.60;36.40;;;;;;;;;;6276447;22;20026;-90
2022/01/28 20:46:12;;;;;;;57.30;35.45;;;;;;;;;;6304300;22;20029;-86
2022/01/28 20:48:40;;;;;;;49.90;31.60;;;;;;;;;;6277212;22;20039;-90
2022/01/28 20:51:08;;;;;;;55.30;31.55;;;;;;;;;;6277328;22;20440;-90
2022/01/28 20:53:39;;;;;;;44.65;28.10;;;9.00;99.90;;;;;;6276739;22;20027;-89
2022/01/28 20:56:06;;;;;;;46.63;29.85;;;9.10;99.90;;;;;;6277051;22;20012;-89
2022/01/28 20:58:41;;;;;;;47.40;30.85;;;9.00;99.90;;;;;;6276711;22;20003;-88
2022/01/28 21:01:07;;;;;;;48.30;29.42;;;;;;;;;;6277100;22;20007;-89
2022/01/28 21:03:34;;;;;;;44.13;27.35;;;9.10;99.90;;;;;;6276878;22;20010;-88
2022/01/28 21:05:59;;;;;;;41.60;27.63;;;9.10;99.90;;;;;;6271980;22;20039;-93
2022/01/28 21:08:26;;;;;;;36.08;23.45;;;9.10;99.90;;;;;;6272562;22;20004;-88
2022/01/28 21:10:54;;;;;;;36.42;23.02;;;;;;;;;;6271232;22;20507;-91
2022/01/28 21:13:31;;;;;;;37.45;22.95;;;;;;;;;;6272546;22;20382;-89
2022/01/28 21:16:15;;;;;;;;;;;;;;;;;;;;;
2022/01/28 21:18:45;;;;;;;47.67;25.75;;;9.20;99.90;;;;;;6272430;22;20519;-91
2022/01/28 21:21:24;;;;;;;;;;;;;;;;;;;;;
2022/01/28 21:23:52;;;;;;;;;;;9.20;99.90;;;;;;6273798;22;20082;-90
2022/01/28 21:26:18;;;;;;;24.90;18.05;;;;;;;;;;6272582;22;20132;-91
2022/01/28 21:28:44;;;;;;;25.63;17.70;;;;;;;;;;6272127;22;20424;-91
2022/01/28 21:31:10;;;;;;;24.15;16.10;;;;;;;;;;6272719;22;20141;-89
2022/01/28 21:33:36;;;;;;;25.05;16.77;;;9.10;99.90;;;;;;6273309;22;20004;-90
2022/01/28 21:36:02;;;;;;;23.55;16.88;;;;;;;;;;6286721;22;20012;-90
2022/01/28 21:38:28;;;;;;;24.23;17.08;;;9.10;99.90;;;;;;6285452;22;19999;-90
2022/01/28 21:40:56;;;;;;;24.20;18.20;;;9.10;99.90;;;;;;6283040;22;20007;-90
2022/01/28 21:43:23;;;;;;;22.40;17.05;;;9.10;99.90;;;;;;6272331;22;20004;-90
2022/01/28 21:45:49;;;;;;;24.58;17.15;;;;;;;;;;6272479;22;20178;-89
2022/01/28 21:48:15;;;;;;;24.75;16.60;;;;;;;;;;6272774;22;20060;-89
2022/01/28 21:50:42;;;;;;;20.88;15.98;;;9.10;99.90;;;;;;6273451;22;20004;-89
2022/01/28 21:53:10;;;;;;;26.17;16.48;;;;;;;;;;6272341;22;20056;-90
2022/01/28 21:55:36;;;;;;;24.23;16.45;;;9.10;99.90;;;;;;6271934;22;20022;-90
2022/01/28 21:58:03;;;;;;;21.23;15.98;;;9.10;99.90;;;;;;6271851;22;20050;-90
2022/01/28 22:00:29;;;;;;;22.48;15.55;;;;;;;;;;6272935;22;20010;-89
2022/01/28 22:02:55;;;;;;;22.67;15.70;;;9.10;99.90;;;;;;6272838;22;20006;-88
2022/01/28 22:05:21;;;;;;;22.83;16.15;;;;;;;;;;6271837;22;20079;-89
2022/01/28 22:07:46;;;;;;;21.98;16.40;;;9.10;99.90;;;;;;6270966;22;19999;-89
2022/01/28 22:10:16;;;;;;;23.73;15.18;;;9.10;99.90;;;;;;6271645;22;20011;-89
2022/01/28 22:12:42;;;;;;;25.63;17.80;;;9.10;99.90;;;;;;6271930;22;20014;-88
2022/01/28 22:15:09;;;;;;;24.27;17.67;;;9.10;99.90;;;;;;6271887;22;20021;-91
2022/01/28 22:17:35;;;;;;;28.88;18.30;;;9.00;99.90;;;;;;6271896;22;19999;-90
2022/01/28 22:20:01;;;;;;;26.00;18.05;;;9.10;99.90;;;;;;6271538;22;20011;-89
2022/01/28 22:22:27;;;;;;;26.25;19.02;;;9.10;99.90;;;;;;6272312;22;20058;-90
2022/01/28 22:24:53;;;;;;;31.42;19.92;;;9.10;99.90;;;;;;6273378;22;19999;-89
2022/01/28 22:27:18;;;;;;;27.95;19.48;;;9.10;99.90;;;;;;6271302;22;20037;-89
2022/01/28 22:29:44;;;;;;;25.10;18.40;;;9.10;99.90;;;;;;6271722;22;20061;-89
2022/01/28 22:32:10;;;;;;;27.45;18.35;;;9.10;99.90;;;;;;6271859;22;20016;-89
2022/01/28 22:34:35;;;;;;;23.73;17.98;;;9.10;99.90;;;;;;6272065;22;20348;-89
2022/01/28 22:37:02;;;;;;;21.88;16.20;;;9.10;99.90;;;;;;6272995;22;20008;-88
2022/01/28 22:39:28;;;;;;;23.70;14.18;;;9.10;99.90;;;;;;6273274;22;20510;-90
2022/01/28 22:41:53;;;;;;;17.60;13.50;;;9.10;99.90;;;;;;6271901;22;20008;-89
2022/01/28 22:44:19;;;;;;;18.20;13.35;;;9.10;99.90;;;;;;6272155;22;20003;-90
2022/01/28 22:46:45;;;;;;;19.92;12.43;;;9.20;99.90;;;;;;6272214;22;19999;-90
2022/01/28 22:49:11;;;;;;;15.25;11.82;;;9.20;99.90;;;;;;6272170;22;20011;-88
2022/01/28 22:51:37;;;;;;;15.13;11.73;;;9.10;99.90;;;;;;6271785;22;20003;-90
2022/01/28 22:54:04;;;;;;;14.00;11.85;;;9.10;99.90;;;;;;6271830;22;20008;-89
2022/01/28 22:56:30;;;;;;;13.95;11.88;;;9.10;99.90;;;;;;6272639;22;20373;-89
2022/01/28 22:58:59;;;;;;;16.40;11.18;;;9.10;99.90;;;;;;6271544;22;20000;-89
2022/01/28 23:01:26;;;;;;;17.58;11.73;;;9.10;99.90;;;;;;6272011;22;20014;-89
2022/01/28 23:03:52;;;;;;;15.75;11.40;;;9.10;99.90;;;;;;6271438;22;20409;-89